Time;durP1;ratioP1;P1;durP2;ratioP2;P2;SDS_P1;SDS_P2;PMS_P1;PMS_P2;Temp;Humidity;BMP_temperature;BMP_pressure;BME280_temperature;BME280_humidity;BME280_pressure;Samples;Min_cycle;Max_cycle;Signal;HPM_P1;HPM_P2
2021/12/13 00:00:10;;;;;;;41.28;14.57;;;;;;;-1.39;74.98;100098.22;5153958;27;20141;-55
2021/12/13 00:02:57;;;;;;;50.92;16.15;;;;;;;-1.46;74.67;100090.19;5152572;27;20042;-57
2021/12/13 00:05:44;;;;;;;44.10;14.65;;;;;;;-1.41;75.00;100094.97;5154355;27;20043;-57
2021/12/13 00:08:13;;;;;;;41.22;15.27;;;;;;;-1.46;75.23;100091.97;5153066;27;20046;-57
2021/12/13 00:10:53;;;;;;;47.70;16.08;;;;;;;-1.52;75.25;100097.75;5153871;27;20047;-57
2021/12/13 00:13:23;;;;;;;39.47;16.60;;;;;;;-1.53;75.18;100093.50;5153877;27;20420;-56
2021/12/13 00:15:59;;;;;;;38.88;14.43;;;;;;;-1.62;75.51;100096.00;5152950;27;20078;-57
2021/12/13 00:18:35;;;;;;;49.17;16.92;;;;;;;-1.75;76.24;100099.84;5153004;27;20384;-57
2021/12/13 00:21:08;;;;;;;45.22;16.17;;;;;;;-1.73;76.30;100103.97;5153389;27;20038;-56
2021/12/13 00:23:48;;;;;;;45.17;14.85;;;;;;;-1.79;76.28;100101.06;5153341;27;20045;-58
2021/12/13 00:26:42;;;;;;;47.10;16.55;;;;;;;-1.60;76.14;100114.84;5153783;27;20043;-56
2021/12/13 00:29:15;;;;;;;50.92;15.25;;;;;;;-1.48;75.55;100114.69;5152288;27;20061;-55
2021/12/13 00:31:47;;;;;;;45.80;16.90;;;;;;;-1.52;75.68;100106.34;5152413;27;20038;-57
2021/12/13 00:34:33;;;;;;;55.10;15.63;;;;;;;-1.65;76.12;100117.06;5153678;27;20046;-58
2021/12/13 00:36:58;;;;;;;53.08;15.45;;;;;;;-1.61;76.18;100112.41;5153728;27;20047;-56
2021/12/13 00:39:29;;;;;;;52.22;16.85;;;;;;;-1.52;75.49;100119.38;5152603;27;20053;-57
2021/12/13 00:41:55;;;;;;;57.22;17.33;;;;;;;-1.40;75.21;100123.44;5153176;27;20081;-57
2021/12/13 00:44:28;;;;;;;41.80;15.57;;;;;;;-1.44;75.34;100118.63;5153470;27;20053;-56
2021/12/13 00:46:56;;;;;;;50.65;17.13;;;;;;;-1.44;75.10;100121.22;5151597;27;20042;-56
2021/12/13 00:49:25;;;;;;;46.25;16.25;;;;;;;-1.32;75.25;100114.91;5152021;27;20488;-57
2021/12/13 00:51:53;;;;;;;45.42;15.70;;;;;;;-1.42;74.73;100112.34;5153405;27;20502;-56
2021/12/13 00:54:22;;;;;;;40.78;15.02;;;;;;;-1.41;74.84;100107.97;5151875;27;20070;-55
2021/12/13 00:57:00;;;;;;;43.03;15.80;;;;;;;-1.31;74.68;100111.34;5151128;27;20469;-56
2021/12/13 00:59:36;;;;;;;52.58;17.40;;;;;;;-1.26;74.20;100101.34;5151601;27;20043;-55
2021/12/13 01:02:14;;;;;;;51.10;15.60;;;;;;;-1.23;74.33;100101.06;5153189;27;20415;-56
2021/12/13 01:05:13;;;;;;;59.13;21.90;;;;;;;-1.28;74.15;100098.06;5153163;27;20099;-56
2021/12/13 01:07:57;;;;;;;44.72;14.40;;;;;;;-1.47;74.32;100088.56;5153359;27;20042;-58
2021/12/13 01:10:41;;;;;;;40.72;13.25;;;;;;;-1.52;74.71;100088.16;5153288;27;20045;-57
2021/12/13 01:13:12;;;;;;;34.58;12.30;;;;;;;-1.64;74.86;100081.50;5153297;27;20039;-56
2021/12/13 01:15:56;;;;;;;29.45;11.25;;;;;;;-1.64;74.75;100091.91;5152092;27;20049;-57
2021/12/13 01:18:36;;;;;;;32.45;12.50;;;;;;;-1.55;75.04;100085.84;5152799;27;20046;-57
2021/12/13 01:21:27;;;;;;;35.97;13.30;;;;;;;-1.51;74.51;100086.38;5153176;27;20042;-56
2021/12/13 01:24:03;;;;;;;30.02;12.43;;;;;;;-1.63;75.18;100085.72;5155755;27;20054;-59
2021/12/13 01:26:39;;;;;;;30.35;10.90;;;;;;;-1.49;74.29;100092.25;5155910;27;20078;-57
2021/12/13 01:29:13;;;;;;;28.13;11.38;;;;;;;-1.59;74.90;100092.28;5156074;27;20122;-57
2021/12/13 01:31:43;;;;;;;28.75;10.75;;;;;;;-1.51;74.98;100088.97;5155610;27;20145;-56
2021/12/13 01:34:10;;;;;;;27.33;10.43;;;;;;;-1.71;75.05;100089.03;5156506;27;20043;-55
2021/12/13 01:36:49;;;;;;;30.67;10.30;;;;;;;-1.70;75.38;100092.47;5138166;27;20042;-57
2021/12/13 01:39:22;;;;;;;26.95;10.25;;;;;;;-1.87;75.48;100087.00;5157059;27;20058;-57
2021/12/13 01:42:04;;;;;;;24.00;10.30;;;;;;;-1.91;75.66;100090.03;5156771;27;20042;-57
2021/12/13 01:44:34;;;;;;;24.58;9.85;;;;;;;-1.79;75.18;100080.28;5135073;27;20046;-57
2021/12/13 01:47:10;;;;;;;;;;;;;;;-1.81;75.20;100084.81;5136745;27;20491;-57
2021/12/13 01:49:40;;;;;;;20.23;8.27;;;;;;;-1.90;75.43;100086.47;5136064;27;19977;-57
2021/12/13 01:52:26;;;;;;;23.85;9.75;;;;;;;-1.86;75.71;100083.44;5135890;27;20050;-55
2021/12/13 01:54:54;;;;;;;24.05;9.82;;;;;;;-1.84;75.78;100078.94;5153708;27;20051;-57
2021/12/13 01:57:26;;;;;;;23.83;8.95;;;;;;;-1.96;75.82;100074.88;5155318;27;20047;-57
2021/12/13 02:00:17;;;;;;;25.08;9.73;;;;;;;-1.85;75.78;100079.91;5156472;27;20389;-57
2021/12/13 02:02:46;;;;;;;22.38;9.75;;;;;;;-1.80;74.88;100078.66;5156296;27;20491;-57
2021/12/13 02:05:21;;;;;;;22.92;9.85;;;;;;;-1.69;75.01;100081.91;5156644;27;20046;-57
2021/12/13 02:07:53;;;;;;;25.55;9.98;;;;;;;-1.68;74.94;100087.91;5155407;27;20065;-56
2021/12/13 02:10:41;;;;;;;27.77;11.38;;;;;;;-1.61;74.85;100076.00;5156676;27;20385;-56
2021/12/13 02:13:10;;;;;;;24.90;9.63;;;;;;;-1.56;75.00;100078.97;5154242;27;20053;-52
2021/12/13 02:18:26;;;;;;;23.08;9.32;;;;;;;-1.47;74.63;100064.31;5156383;27;20046;-57
2021/12/13 02:21:04;;;;;;;24.50;8.95;;;;;;;-1.45;74.89;100059.81;5156187;27;20502;-58
2021/12/13 02:23:33;;;;;;;26.33;10.57;;;;;;;-1.55;74.80;100061.63;5155993;27;20042;-54
2021/12/13 02:25:59;;;;;;;31.40;9.82;;;;;;;-1.53;75.15;100057.09;5156111;27;20514;-56
2021/12/13 02:28:31;;;;;;;23.90;9.18;;;;;;;-1.63;75.26;100044.94;5155563;27;20042;-58
2021/12/13 02:31:03;;;;;;;23.27;9.45;;;;;;;-1.56;75.06;100049.56;5155917;27;20042;-56
2021/12/13 02:33:52;;;;;;;24.70;9.70;;;;;;;-1.59;75.09;100042.88;5155731;27;20122;-56
2021/12/13 02:36:30;;;;;;;26.30;10.35;;;;;;;-1.49;75.24;100037.66;5155424;27;20122;-55
2021/12/13 02:38:59;;;;;;;29.73;10.77;;;;;;;-1.53;75.02;100034.53;5155765;27;20046;-56
2021/12/13 02:41:28;;;;;;;26.00;9.75;;;;;;;-1.65;75.42;100038.25;5155572;27;20118;-56
2021/12/13 02:43:59;;;;;;;25.88;9.30;;;;;;;-1.59;75.42;100048.06;5155782;27;20050;-55
2021/12/13 02:46:24;;;;;;;;;;;;;;;-1.58;75.57;100054.13;5154502;27;20389;-54
2021/12/13 02:49:01;;;;;;;26.52;9.73;;;;;;;-1.64;75.22;100045.91;5155235;27;19925;-57
2021/12/13 02:51:29;;;;;;;28.73;9.82;;;;;;;-1.60;75.79;100038.66;5155403;27;20061;-57
2021/12/13 02:54:01;;;;;;;25.85;9.63;;;;;;;-1.42;75.08;100046.50;5154109;27;20050;-57
2021/12/13 02:56:34;;;;;;;28.08;11.88;;;;;;;-1.31;75.01;100051.53;5155066;27;20050;-57
2021/12/13 02:59:01;;;;;;;26.73;11.02;;;;;;;-1.38;74.54;100045.28;5155542;27;20147;-57
2021/12/13 03:01:36;;;;;;;23.98;10.38;;;;;;;-1.44;74.91;100038.03;5155114;27;20046;-57
2021/12/13 03:04:06;;;;;;;27.60;10.07;;;;;;;-1.45;75.63;100034.59;5155453;27;20094;-58
2021/12/13 03:06:36;;;;;;;33.72;10.80;;;;;;;-1.33;75.00;100035.22;5154851;27;20039;-56
2021/12/13 03:09:10;;;;;;;26.00;10.77;;;;;;;-1.39;74.99;100034.03;5155264;27;20453;-58
2021/12/13 03:11:36;;;;;;;23.70;9.48;;;;;;;-1.49;75.32;100027.25;5154993;27;20031;-57
2021/12/13 03:14:25;;;;;;;28.25;10.52;;;;;;;-1.50;75.56;100013.44;5136528;27;20082;-56
2021/12/13 03:17:11;;;;;;;29.17;9.52;;;;;;;-1.43;75.08;100009.28;5134154;27;20489;-58
2021/12/13 03:19:40;;;;;;;28.38;9.88;;;;;;;-1.36;75.27;100009.53;5132843;27;20130;-56
2021/12/13 03:22:20;;;;;;;28.80;10.35;;;;;;;-1.37;75.09;100011.31;5139268;27;20562;-59
2021/12/13 03:25:09;;;;;;;29.70;10.93;;;;;;;-1.42;75.23;100017.91;5154927;27;20046;-57
2021/12/13 03:28:03;;;;;;;27.52;10.55;;;;;;;-1.40;74.95;100018.59;5134639;27;20511;-57
2021/12/13 03:30:44;;;;;;;26.38;9.75;;;;;;;-1.47;74.98;100012.31;5154692;27;20049;-57
2021/12/13 03:33:12;;;;;;;30.63;11.20;;;;;;;-1.53;75.69;100005.09;5136230;27;20034;-57
2021/12/13 03:35:45;;;;;;;27.45;9.70;;;;;;;-1.56;75.70;100001.00;5154920;27;20050;-58
2021/12/13 03:38:28;;;;;;;29.35;9.75;;;;;;;-1.41;75.38;100007.38;5154815;27;20034;-57
2021/12/13 03:40:59;;;;;;;23.40;10.30;;;;;;;-1.44;74.99;99999.00;5152867;27;20043;-56
2021/12/13 03:43:37;;;;;;;29.77;10.27;;;;;;;-1.47;75.26;100004.50;5154517;27;20039;-57
2021/12/13 03:46:05;;;;;;;30.55;11.35;;;;;;;-1.44;75.49;100014.63;5152172;27;20407;-56
2021/12/13 03:48:34;;;;;;;31.60;10.82;;;;;;;-1.35;74.98;100018.13;5154564;27;20069;-58
2021/12/13 03:51:11;;;;;;;25.73;10.02;;;;;;;-1.41;75.19;100015.16;5131852;27;20046;-57
2021/12/13 03:53:37;;;;;;;29.45;10.43;;;;;;;-1.50;75.21;100008.25;5133341;27;20027;-57
2021/12/13 03:56:10;;;;;;;29.38;10.60;;;;;;;-1.56;75.79;100011.38;5131973;27;20058;-57
2021/12/13 03:58:42;;;;;;;27.80;11.27;;;;;;;-1.38;76.00;100004.47;5132031;27;20146;-56
2021/12/13 04:01:20;;;;;;;26.00;10.68;;;;;;;-1.24;75.84;100008.34;5143614;27;20057;-56
2021/12/13 04:03:47;;;;;;;30.63;10.95;;;;;;;-1.14;74.30;99992.72;5153970;27;20038;-57
2021/12/13 04:06:14;;;;;;;26.80;9.85;;;;;;;-1.11;74.11;99991.59;5154215;27;20389;-54
2021/12/13 04:08:41;;;;;;;31.55;11.13;;;;;;;-1.17;74.42;99995.59;5153711;27;20038;-56
2021/12/13 04:11:09;;;;;;;27.77;11.18;;;;;;;-1.20;75.17;99998.50;5152496;27;20039;-57
2021/12/13 04:13:51;;;;;;;26.77;10.10;;;;;;;-1.22;74.55;99993.44;5151883;27;20125;-57
2021/12/13 04:16:33;;;;;;;30.75;11.02;;;;;;;-1.30;74.73;99997.72;5139902;27;20042;-57
2021/12/13 04:19:11;;;;;;;29.95;11.15;;;;;;;-1.23;74.68;99993.59;5153823;27;20043;-57
2021/12/13 04:22:00;;;;;;;27.92;10.60;;;;;;;-1.31;74.77;99990.88;5152391;27;20047;-59
2021/12/13 04:24:31;;;;;;;28.90;10.90;;;;;;;-1.30;75.16;99988.13;5153446;27;20046;-57
2021/12/13 04:27:03;;;;;;;27.05;11.90;;;;;;;-1.29;75.46;99981.97;5152263;27;20051;-57
2021/12/13 04:29:32;;;;;;;36.20;11.45;;;;;;;-1.32;75.26;99969.28;5152938;27;20404;-57
2021/12/13 04:31:59;;;;;;;25.60;9.80;;;;;;;-1.34;75.31;99980.78;5153112;27;20411;-57
2021/12/13 04:34:27;;;;;;;31.85;12.88;;;;;;;-1.42;75.69;99982.31;5152184;27;20043;-56
2021/12/13 04:36:55;;;;;;;33.40;11.45;;;;;;;-1.52;76.57;99978.16;5153017;27;20135;-57
2021/12/13 04:39:35;;;;;;;33.28;11.82;;;;;;;-1.46;76.46;99980.97;5151645;27;20133;-57
2021/12/13 04:42:11;;;;;;;30.90;11.57;;;;;;;-1.32;76.76;99982.28;5153154;27;20034;-57
2021/12/13 04:44:46;;;;;;;31.80;11.77;;;;;;;-1.21;75.48;99961.22;5153236;27;20130;-58
2021/12/13 04:47:18;;;;;;;30.25;10.63;;;;;;;-1.30;75.60;99969.09;5153498;27;20030;-58
2021/12/13 04:49:58;;;;;;;36.13;12.15;;;;;;;-1.36;75.88;99983.50;5150858;27;20066;-57
2021/12/13 04:52:24;;;;;;;34.10;11.52;;;;;;;-1.38;75.97;99985.47;5153157;27;20034;-56
2021/12/13 04:54:54;;;;;;;33.63;10.77;;;;;;;-1.49;76.13;99968.25;5153083;27;20448;-57
2021/12/13 04:57:20;;;;;;;31.33;11.77;;;;;;;-1.46;76.38;99961.97;5152899;27;20095;-57
2021/12/13 04:59:56;;;;;;;32.80;11.13;;;;;;;-1.47;76.07;99966.34;5151760;27;20038;-57
2021/12/13 05:02:22;;;;;;;35.42;11.93;;;;;;;-1.33;76.25;99969.41;5153009;27;20070;-57
2021/12/13 05:05:00;;;;;;;29.88;11.40;;;;;;;-1.30;76.19;99956.09;5151536;27;20100;-58
2021/12/13 05:07:26;;;;;;;34.20;11.45;;;;;;;-1.27;75.83;99951.41;5152307;27;20038;-57
2021/12/13 05:09:53;;;;;;;35.60;11.15;;;;;;;-1.39;75.99;99960.41;5152429;27;20121;-57
2021/12/13 05:12:25;;;;;;;34.72;11.80;;;;;;;-1.40;76.04;99962.19;5152899;27;20035;-57
2021/12/13 05:14:59;;;;;;;36.00;12.20;;;;;;;-1.21;77.37;99948.22;5151753;27;20054;-58
2021/12/13 05:17:33;;;;;;;36.53;12.18;;;;;;;-1.29;76.02;99942.97;5151482;27;20053;-59
2021/12/13 05:20:06;;;;;;;43.60;11.68;;;;;;;-1.36;76.10;99957.50;5152558;27;20408;-57
2021/12/13 05:22:39;;;;;;;37.13;12.50;;;;;;;-1.32;76.44;99953.66;5152506;27;20072;-56
2021/12/13 05:25:06;;;;;;;35.13;12.07;;;;;;;-1.18;75.92;99954.91;5151218;27;20491;-54
2021/12/13 05:27:37;;;;;;;33.55;11.63;;;;;;;-1.07;75.37;99957.31;5129623;27;20088;-57
2021/12/13 05:30:23;;;;;;;;;;;;;;;-1.04;74.78;99962.22;5149579;27;20049;-56
2021/12/13 05:33:03;;;;;;;29.85;11.57;;;;;;;-1.20;75.52;99967.28;5150857;27;19919;-57
2021/12/13 05:35:42;;;;;;;29.05;10.93;;;;;;;-1.09;75.73;99974.03;5152218;27;20043;-55
2021/12/13 05:38:10;;;;;;;28.95;11.00;;;;;;;-1.11;74.94;99974.19;5150811;27;20070;-56
2021/12/13 05:40:36;;;;;;;38.10;11.50;;;;;;;-1.28;75.56;99980.19;5152440;27;20050;-55
2021/12/13 05:43:14;;;;;;;33.40;11.40;;;;;;;-1.22;75.71;99987.41;5152525;27;20050;-58
2021/12/13 05:45:44;;;;;;;29.30;11.10;;;;;;;-1.22;75.70;99972.63;5152100;27;20091;-56
2021/12/13 05:48:14;;;;;;;32.75;11.43;;;;;;;-1.12;76.01;99969.13;5141773;27;20043;-56
2021/12/13 05:50:54;;;;;;;27.65;10.55;;;;;;;-1.09;75.65;99974.03;5152733;27;20138;-59
2021/12/13 05:53:27;;;;;;;26.88;10.07;;;;;;;-1.08;75.50;99971.31;5151087;27;20046;-57
2021/12/13 05:56:10;;;;;;;30.60;11.30;;;;;;;-1.00;75.09;99974.00;5152046;27;20423;-57
2021/12/13 05:58:58;;;;;;;28.65;10.70;;;;;;;-1.03;75.40;99971.69;5152337;27;20508;-57
2021/12/13 06:01:26;;;;;;;25.38;9.95;;;;;;;-1.08;75.64;99970.50;5149866;27;20053;-56
2021/12/13 06:03:57;;;;;;;38.38;11.77;;;;;;;-1.25;76.08;99967.72;5134566;27;20082;-57
2021/12/13 06:06:28;;;;;;;30.60;14.07;;;;;;;-1.16;76.48;99968.59;5130531;27;20504;-56
2021/12/13 06:08:56;;;;;;;29.92;12.15;;;;;;;-1.17;76.35;99962.59;5130501;27;20049;-59
2021/12/13 06:11:32;;;;;;;34.00;12.68;;;;;;;-1.22;76.47;99964.81;5140934;27;20412;-55
2021/12/13 06:14:05;;;;;;;38.85;11.88;;;;;;;-1.23;76.50;99957.16;5154466;27;20534;-56
2021/12/13 06:16:31;;;;;;;29.25;12.13;;;;;;;-1.26;76.33;99960.06;5154921;27;20043;-56
2021/12/13 06:19:26;;;;;;;34.20;12.25;;;;;;;-1.15;76.89;99976.28;5153520;27;20042;-57
2021/12/13 06:22:09;;;;;;;25.83;11.07;;;;;;;-1.15;76.50;99973.69;5124793;27;20215;-52
2021/12/13 06:24:54;;;;;;;32.13;13.50;;;;;;;-1.20;76.09;99973.28;5147631;27;20479;-53
2021/12/13 06:27:29;;;;;;;38.22;13.90;;;;;;;-1.35;76.95;99969.56;5144012;27;20080;-56
2021/12/13 06:29:59;;;;;;;29.95;10.93;;;;;;;-1.21;76.88;99968.22;5153314;27;20043;-57
2021/12/13 06:32:37;;;;;;;29.98;10.73;;;;;;;-1.04;76.40;99974.41;5134310;27;20050;-57
2021/12/13 06:35:29;;;;;;;30.25;11.32;;;;;;;-0.89;75.58;99970.31;5151434;27;20042;-55
2021/12/13 06:37:55;;;;;;;34.28;11.40;;;;;;;-0.88;75.19;99966.78;5144475;27;20137;-57
2021/12/13 06:40:27;;;;;;;29.17;11.00;;;;;;;-0.96;75.90;99951.09;5140348;27;20039;-56
2021/12/13 06:42:58;;;;;;;31.38;10.93;;;;;;;-0.93;75.65;99958.59;5151208;27;20147;-56
2021/12/13 06:45:31;;;;;;;33.45;11.43;;;;;;;-1.08;75.94;99949.66;5150971;27;20099;-56
2021/12/13 06:47:59;;;;;;;28.67;11.25;;;;;;;-1.03;76.76;99956.06;5134211;27;20038;-54
2021/12/13 06:50:34;;;;;;;27.45;11.10;;;;;;;-0.98;76.61;99958.22;5136158;27;20411;-56
2021/12/13 06:53:27;;;;;;;36.20;12.13;;;;;;;-0.85;77.15;99961.28;5133315;27;20496;-56
2021/12/13 06:55:52;;;;;;;28.42;12.52;;;;;;;-0.76;76.42;99972.56;5150214;27;20074;-57
2021/12/13 06:58:24;;;;;;;44.83;13.95;;;;;;;-0.80;76.15;99977.22;5147871;27;20043;-58
2021/12/13 07:00:57;;;;;;;36.85;13.55;;;;;;;-0.68;75.80;99980.44;5150881;27;20043;-56
2021/12/13 07:03:32;;;;;;;43.92;13.48;;;;;;;-0.70;74.82;99977.19;5150687;27;20027;-58
2021/12/13 07:06:00;;;;;;;35.55;13.38;;;;;;;-0.69;75.06;99991.81;5151351;27;20051;-56
2021/12/13 07:08:37;;;;;;;39.85;13.02;;;;;;;-0.62;74.55;99981.63;5152623;27;20035;-55
2021/12/13 07:11:12;;;;;;;33.55;12.00;;;;;;;-0.74;75.07;99981.03;5151457;27;20027;-60
2021/12/13 07:13:48;;;;;;;35.75;12.60;;;;;;;-0.88;75.16;99985.00;5149012;27;20039;-56
2021/12/13 07:16:26;;;;;;;38.17;12.70;;;;;;;-0.92;75.89;99988.84;5152631;27;20038;-52
2021/12/13 07:19:02;;;;;;;34.83;12.15;;;;;;;-0.93;75.67;99995.84;5131838;27;20090;-57
2021/12/13 07:21:44;;;;;;;44.25;15.40;;;;;;;-0.84;75.76;99998.53;5148714;27;20043;-61
2021/12/13 07:24:19;;;;;;;37.53;13.23;;;;;;;-0.76;75.46;100006.41;5146409;27;20039;-55
2021/12/13 07:26:52;;;;;;;39.15;13.13;;;;;;;-0.78;75.21;100003.94;5144136;27;20066;-56
2021/12/13 07:29:36;;;;;;;37.22;12.85;;;;;;;-0.67;75.45;100005.50;5151127;27;20034;-57
2021/12/13 07:32:07;;;;;;;34.00;13.50;;;;;;;-0.56;74.47;100009.66;5149477;27;20066;-56
2021/12/13 07:35:11;;;;;;;36.65;11.90;;;;;;;-0.53;74.38;100015.41;5149939;27;20433;-58
2021/12/13 07:37:51;;;;;;;39.22;13.55;;;;;;;-0.59;74.14;100013.41;5146286;27;20144;-57
2021/12/13 07:40:20;;;;;;;37.43;15.70;;;;;;;-0.82;74.99;100014.81;5146207;27;20047;-57
2021/12/13 07:42:56;;;;;;;39.10;13.63;;;;;;;-0.79;75.24;100006.72;5149355;27;20484;-57
2021/12/13 07:45:30;;;;;;;39.10;13.45;;;;;;;-0.82;75.65;100007.00;5147411;27;20042;-57
2021/12/13 07:47:58;;;;;;;36.80;13.73;;;;;;;-0.70;75.35;100003.22;5148382;27;21618;-55
2021/12/13 07:50:24;;;;;;;37.78;13.40;;;;;;;-0.64;74.95;100009.59;5147871;27;20041;-54
2021/12/13 07:52:58;;;;;;;42.95;13.77;;;;;;;-0.64;75.00;100010.44;5149371;27;20571;-58
2021/12/13 07:55:28;;;;;;;39.78;14.43;;;;;;;-0.71;75.00;100010.22;5149009;27;20050;-55
2021/12/13 07:57:55;;;;;;;40.38;13.38;;;;;;;-0.67;74.92;100007.31;5147939;27;20035;-56
2021/12/13 08:00:26;;;;;;;40.92;13.95;;;;;;;-0.62;74.51;100016.28;5150105;27;20506;-57
2021/12/13 08:03:06;;;;;;;38.80;12.40;;;;;;;-0.52;74.27;100009.22;5149770;27;20080;-58
2021/12/13 08:05:40;;;;;;;44.60;14.73;;;;;;;-0.67;74.32;100013.31;5149228;27;20126;-56
2021/12/13 08:08:08;;;;;;;43.20;13.20;;;;;;;-0.65;74.26;100016.56;5144274;27;20523;-55
2021/12/13 08:10:38;;;;;;;36.10;13.18;;;;;;;-0.55;74.13;100019.94;5147551;27;20123;-53
2021/12/13 08:13:17;;;;;;;37.60;13.30;;;;;;;-0.66;74.80;100020.16;5148715;27;20531;-55
2021/12/13 08:15:47;;;;;;;35.58;13.55;;;;;;;-0.66;74.53;100022.75;5150532;27;20054;-56
2021/12/13 08:18:24;;;;;;;37.58;14.48;;;;;;;-0.52;74.56;100021.44;5150726;27;20041;-56
2021/12/13 08:21:06;;;;;;;42.35;13.55;;;;;;;-0.48;74.17;100015.75;5150113;27;20137;-56
2021/12/13 08:23:51;;;;;;;37.45;12.98;;;;;;;-0.39;74.32;100013.22;5135800;27;20420;-58
2021/12/13 08:26:24;;;;;;;41.63;14.10;;;;;;;-0.38;74.06;100012.25;5148594;27;20035;-55
2021/12/13 08:28:52;;;;;;;48.28;15.52;;;;;;;-0.43;74.09;100007.50;5147324;27;20125;-55
2021/12/13 08:31:20;;;;;;;47.67;15.48;;;;;;;-0.50;74.22;100006.44;5149238;27;20111;-57
2021/12/13 08:33:49;;;;;;;43.95;15.15;;;;;;;-0.49;74.55;100002.91;5128251;27;20041;-56
2021/12/13 08:36:22;;;;;;;43.38;14.35;;;;;;;-0.49;74.72;100008.91;5126811;27;20070;-57
2021/12/13 08:38:53;;;;;;;47.35;15.63;;;;;;;-0.44;74.19;100008.47;5147258;27;20139;-55
2021/12/13 08:41:51;;;;;;;36.88;13.75;;;;;;;-0.56;74.45;100010.50;5145743;27;20186;-55
2021/12/13 08:44:52;;;;;;;40.83;14.23;;;;;;;-0.46;74.64;100019.03;5147582;27;20426;-56
2021/12/13 08:47:24;;;;;;;43.80;16.02;;;;;;;-0.42;74.34;100022.16;5149412;27;20420;-56
2021/12/13 08:49:57;;;;;;;44.55;16.13;;;;;;;-0.34;74.17;100013.59;5147425;27;20488;-55
2021/12/13 08:52:27;;;;;;;42.05;14.57;;;;;;;-0.29;74.35;100013.97;5148580;27;20038;-55
2021/12/13 08:55:11;;;;;;;43.75;14.48;;;;;;;-0.27;74.16;100020.63;5148262;27;20054;-56
2021/12/13 08:57:49;;;;;;;48.13;15.80;;;;;;;-0.20;73.54;100022.66;5146589;27;20099;-56
2021/12/13 09:00:30;;;;;;;43.80;15.07;;;;;;;-0.19;73.35;100013.84;5147383;27;20570;-54
2021/12/13 09:03:21;;;;;;;37.28;14.57;;;;;;;-0.03;73.97;100008.75;5149350;27;20106;-58
2021/12/13 09:05:53;;;;;;;46.67;15.05;;;;;;;-0.01;72.65;100010.22;5148929;27;20046;-58
2021/12/13 09:08:28;;;;;;;36.25;14.43;;;;;;;-0.13;73.42;99992.41;5147319;27;20113;-58
2021/12/13 09:11:13;;;;;;;44.38;15.80;;;;;;;-0.16;73.72;99983.09;5149024;27;20069;-55
2021/12/13 09:13:47;;;;;;;48.50;15.82;;;;;;;-0.10;73.33;99989.47;5145976;27;20113;-57
2021/12/13 09:16:18;;;;;;;39.90;15.05;;;;;;;-0.08;73.32;99987.56;5130453;27;20453;-58
2021/12/13 09:18:45;;;;;;;42.70;15.73;;;;;;;0.13;72.85;99982.78;5147923;27;20043;-57
2021/12/13 09:21:15;;;;;;;42.42;15.23;;;;;;;0.07;73.38;99972.97;5148906;27;20034;-56
2021/12/13 09:23:45;;;;;;;40.97;14.95;;;;;;;0.19;72.78;99968.31;5147442;27;20828;-56
2021/12/13 09:26:14;;;;;;;43.85;14.60;;;;;;;0.27;72.21;99963.13;5146142;27;20138;-56
2021/12/13 09:29:01;;;;;;;39.08;14.60;;;;;;;0.23;72.46;99964.41;5148572;27;20043;-56
2021/12/13 09:31:34;;;;;;;47.40;15.38;;;;;;;0.23;72.49;99962.59;5147079;27;20045;-56
2021/12/13 09:34:14;;;;;;;43.42;16.55;;;;;;;0.37;72.48;99965.59;5147557;27;20068;-57
2021/12/13 09:36:43;;;;;;;43.53;15.30;;;;;;;0.50;72.08;99960.78;5147934;27;20531;-58
2021/12/13 09:39:17;;;;;;;43.55;15.73;;;;;;;0.50;71.52;99957.34;5149929;27;20082;-57
2021/12/13 09:42:05;;;;;;;44.03;15.50;;;;;;;0.40;71.91;99958.28;5143060;27;20456;-56
2021/12/13 09:44:39;;;;;;;44.97;15.30;;;;;;;0.38;71.34;99962.03;5150435;27;20485;-54
2021/12/13 09:47:13;;;;;;;40.83;14.68;;;;;;;0.45;72.20;99960.44;5140088;27;20129;-53
2021/12/13 09:49:54;;;;;;;44.05;15.45;;;;;;;0.55;72.08;99968.13;5149124;27;20042;-57
2021/12/13 09:53:03;;;;;;;49.70;16.50;;;;;;;0.49;71.64;99960.94;5151300;27;20124;-56
2021/12/13 09:55:45;;;;;;;45.85;15.00;;;;;;;0.56;71.24;99969.75;5149811;27;20059;-60
2021/12/13 09:58:13;;;;;;;45.72;16.23;;;;;;;0.43;71.86;99957.16;5151559;27;20034;-56
2021/12/13 10:00:43;;;;;;;52.08;17.50;;;;;;;0.46;71.72;99951.63;5155228;27;20196;-58
2021/12/13 10:03:13;;;;;;;43.13;15.27;;;;;;;0.36;71.89;99953.56;5136518;27;20572;-55
2021/12/13 10:05:45;;;;;;;40.97;15.45;;;;;;;0.33;71.50;99951.25;5136747;27;20797;-57
2021/12/13 10:08:16;;;;;;;39.97;15.73;;;;;;;0.35;72.28;99947.50;5149533;27;20055;-58
2021/12/13 10:10:56;;;;;;;52.38;15.95;;;;;;;0.51;71.39;99951.16;5153129;27;20403;-56
2021/12/13 10:13:26;;;;;;;46.47;16.00;;;;;;;0.51;71.17;99951.97;5155284;27;20117;-57
2021/12/13 10:16:02;;;;;;;45.08;17.48;;;;;;;0.51;71.57;99946.75;5155247;27;20055;-57
2021/12/13 10:18:32;;;;;;;42.30;15.45;;;;;;;0.45;71.77;99953.41;5154062;27;20042;-52
2021/12/13 10:21:09;;;;;;;53.15;15.82;;;;;;;0.28;71.82;99950.91;5155018;27;20069;-54
2021/12/13 10:23:40;;;;;;;47.55;17.15;;;;;;;0.43;71.51;99952.75;5154209;27;20031;-52
2021/12/13 10:26:09;;;;;;;42.03;16.33;;;;;;;0.62;71.23;99953.47;5152584;27;20698;-55
2021/12/13 10:28:38;;;;;;;46.03;15.55;;;;;;;0.63;70.64;99953.31;5151469;27;20421;-53
2021/12/13 10:31:14;;;;;;;42.00;15.30;;;;;;;0.65;70.59;99958.38;5152299;27;20043;-53
2021/12/13 10:33:40;;;;;;;48.20;16.55;;;;;;;0.33;71.81;99953.88;5152811;27;20042;-53
2021/12/13 10:36:07;;;;;;;39.83;14.63;;;;;;;0.25;72.63;99962.47;5152773;27;20042;-55
2021/12/13 10:38:40;;;;;;;42.78;15.15;;;;;;;0.30;71.83;99948.97;5152134;27;20075;-57
2021/12/13 10:41:11;;;;;;;48.42;15.98;;;;;;;0.42;72.52;99961.56;5153664;27;20039;-56
2021/12/13 10:43:43;;;;;;;47.28;15.98;;;;;;;0.63;71.34;99955.91;5152860;27;20027;-53
2021/12/13 10:46:12;;;;;;;43.53;15.52;;;;;;;0.68;70.48;99953.66;5154197;27;20053;-53
2021/12/13 10:48:48;;;;;;;47.85;15.65;;;;;;;0.59;70.96;99957.22;5152466;27;20110;-55
2021/12/13 10:51:25;;;;;;;39.95;14.60;;;;;;;0.69;71.20;99954.47;5152830;27;20460;-54
2021/12/13 10:53:52;;;;;;;39.50;14.68;;;;;;;0.73;69.72;99950.53;5151764;27;20045;-56
2021/12/13 10:56:28;;;;;;;48.20;14.85;;;;;;;0.79;70.42;99946.47;5133596;27;20111;-54
2021/12/13 10:58:56;;;;;;;44.72;16.13;;;;;;;0.79;70.65;99946.47;5151631;27;20095;-55
2021/12/13 11:01:27;;;;;;;43.78;14.45;;;;;;;0.87;70.06;99946.50;5154025;27;20511;-56
2021/12/13 11:03:54;;;;;;;;;;;;;;;0.94;70.86;99937.03;5153409;27;20519;-56
2021/12/13 11:06:20;;;;;;;53.22;15.70;;;;;;;0.82;69.53;99941.75;5136685;27;19926;-57
2021/12/13 11:08:46;;;;;;;46.88;15.77;;;;;;;0.64;70.51;99941.88;5131890;27;20057;-55
2021/12/13 11:11:25;;;;;;;41.63;14.93;;;;;;;0.66;71.26;99941.75;5131701;27;20567;-54
2021/12/13 11:13:54;;;;;;;53.42;17.48;;;;;;;0.71;70.92;99936.03;5133215;27;20043;-55
2021/12/13 11:16:24;;;;;;;42.20;15.67;;;;;;;0.83;70.73;99942.59;5148120;27;20047;-52
2021/12/13 11:18:57;;;;;;;38.50;14.55;;;;;;;0.82;70.75;99936.53;5146503;27;20035;-54
2021/12/13 11:21:30;;;;;;;41.60;15.48;;;;;;;0.73;70.22;99926.25;5146618;27;20083;-54
2021/12/13 11:23:57;;;;;;;47.10;16.08;;;;;;;0.81;71.08;99918.44;5149150;27;20046;-55
2021/12/13 11:26:27;;;;;;;43.03;15.45;;;;;;;0.94;70.83;99915.34;5150275;27;20038;-55
2021/12/13 11:28:54;;;;;;;41.33;16.23;;;;;;;0.98;70.02;99911.44;5150736;27;20050;-54
2021/12/13 11:31:28;;;;;;;40.58;15.50;;;;;;;0.99;70.15;99915.69;5149801;27;20050;-56
2021/12/13 11:34:04;;;;;;;45.33;17.80;;;;;;;1.00;69.33;99915.53;5148172;27;20134;-55
2021/12/13 11:37:13;;;;;;;48.38;16.83;;;;;;;1.00;69.88;99915.53;5149305;27;20042;-55
2021/12/13 11:39:57;;;;;;;45.20;17.02;;;;;;;1.11;69.62;99917.81;5150673;27;20054;-54
2021/12/13 11:42:54;;;;;;;52.90;16.92;;;;;;;1.18;69.93;99914.53;5149686;27;20043;-57
2021/12/13 11:45:44;;;;;;;48.35;17.25;;;;;;;1.10;69.93;99908.34;5149043;27;20107;-57
2021/12/13 11:48:44;;;;;;;41.67;15.05;;;;;;;1.10;69.40;99918.78;5150233;27;20049;-54
2021/12/13 11:51:28;;;;;;;41.55;16.77;;;;;;;1.07;69.02;99918.31;5138783;27;20739;-53
2021/12/13 11:54:32;;;;;;;47.45;14.95;;;;;;;1.07;69.53;99916.50;5151287;27;20385;-55